createdAt,value
2018-03-25T00:02:13.497Z,20.73
2018-03-25T00:04:39.246Z,19.13
2018-03-25T00:07:04.990Z,19.70
2018-03-25T00:09:30.745Z,18.47
2018-03-25T00:11:56.479Z,18.30
2018-03-25T00:14:22.226Z,21.50
2018-03-25T00:16:47.969Z,18.83
2018-03-25T00:19:13.724Z,19.77
2018-03-25T00:21:39.478Z,19.50
2018-03-25T00:24:05.371Z,22.33
2018-03-25T00:26:31.119Z,19.53
2018-03-25T00:28:56.865Z,19.77
2018-03-25T00:31:22.614Z,19.73
2018-03-25T00:33:48.359Z,19.23
2018-03-25T00:36:14.098Z,18.57
2018-03-25T00:38:39.818Z,19.67
2018-03-25T00:41:05.554Z,18.13
2018-03-25T00:43:31.309Z,18.07
2018-03-25T00:45:57.050Z,18.27
2018-03-25T00:48:22.795Z,20.33
2018-03-25T00:50:48.547Z,17.07
2018-03-25T00:53:14.282Z,17.73
2018-03-25T00:55:40.024Z,17.77
2018-03-25T00:58:05.995Z,18.03
2018-03-25T01:00:31.767Z,16.40
2018-03-25T01:02:57.511Z,19.10
2018-03-25T01:05:23.268Z,17.27
2018-03-25T01:07:49.003Z,19.50
2018-03-25T01:10:14.756Z,17.57
2018-03-25T01:12:40.492Z,17.23
2018-03-25T01:15:06.264Z,17.70
2018-03-25T01:17:32.024Z,18.53
2018-03-25T01:19:58.068Z,17.17
2018-03-25T01:22:24.133Z,16.87
2018-03-25T01:24:50.723Z,16.92
2018-03-25T01:27:16.746Z,20.33
2018-03-25T01:29:42.754Z,16.55
2018-03-25T01:32:08.802Z,18.43
2018-03-25T01:34:34.565Z,18.27
2018-03-25T01:37:00.570Z,18.60
2018-03-25T01:39:26.343Z,19.10
2018-03-25T01:41:52.094Z,17.87
2018-03-25T01:44:17.835Z,19.07
2018-03-25T01:46:43.578Z,17.23
2018-03-25T01:49:09.318Z,18.37
2018-03-25T01:51:35.058Z,17.77
2018-03-25T01:54:00.798Z,16.67
2018-03-25T01:56:26.532Z,19.37
2018-03-25T01:58:52.640Z,16.87
2018-03-25T02:01:18.403Z,17.70
2018-03-25T02:03:44.141Z,17.73
2018-03-25T02:06:09.869Z,17.33
2018-03-25T02:08:35.729Z,17.87
2018-03-25T02:11:01.723Z,17.97
2018-03-25T02:13:28.856Z,17.58
2018-03-25T02:15:54.639Z,16.83
2018-03-25T02:18:20.402Z,18.20
2018-03-25T02:20:46.239Z,19.33
2018-03-25T02:23:11.978Z,17.83
2018-03-25T02:25:37.727Z,17.37
2018-03-25T02:28:03.466Z,18.07
2018-03-25T02:30:29.203Z,19.77
2018-03-25T02:32:54.944Z,17.80
2018-03-25T02:35:20.698Z,17.57
2018-03-25T02:37:46.444Z,18.17
2018-03-25T02:40:12.186Z,16.67
2018-03-25T02:42:37.934Z,16.67
2018-03-25T02:45:03.688Z,19.13
2018-03-25T02:47:29.441Z,18.73
2018-03-25T02:49:55.184Z,18.13
2018-03-25T02:52:20.927Z,18.53
2018-03-25T02:54:46.664Z,17.93
2018-03-25T02:57:12.409Z,17.80
2018-03-25T02:59:38.182Z,16.97
2018-03-25T03:02:03.907Z,17.97
2018-03-25T03:04:29.651Z,17.77
2018-03-25T03:06:55.393Z,18.03
2018-03-25T03:09:21.154Z,18.80
2018-03-25T03:11:46.878Z,19.13
2018-03-25T03:14:12.647Z,18.03
2018-03-25T03:16:38.400Z,18.23
2018-03-25T03:19:10.227Z,18.60
2018-03-25T03:21:35.918Z,20.88
2018-03-25T03:24:01.672Z,18.27
2018-03-25T03:26:27.426Z,17.37
2018-03-25T03:28:53.166Z,17.07
2018-03-25T03:31:18.907Z,19.60
2018-03-25T03:33:44.667Z,17.20
2018-03-25T03:36:10.422Z,17.40
2018-03-25T03:38:36.176Z,17.23
2018-03-25T03:41:01.902Z,19.30
2018-03-25T03:43:27.635Z,17.40
2018-03-25T03:45:53.377Z,19.77
2018-03-25T03:48:19.117Z,17.97
2018-03-25T03:50:44.868Z,18.20
2018-03-25T03:53:10.598Z,18.53
2018-03-25T03:55:36.336Z,18.17
2018-03-25T03:58:02.082Z,18.67
2018-03-25T04:00:27.827Z,19.10
2018-03-25T04:02:53.566Z,19.27
2018-03-25T04:05:19.310Z,17.13
2018-03-25T04:07:45.055Z,18.43
2018-03-25T04:10:10.813Z,18.97
2018-03-25T04:12:36.569Z,19.93
2018-03-25T04:15:02.326Z,18.83
2018-03-25T04:17:28.062Z,16.97
2018-03-25T04:19:53.797Z,18.63
2018-03-25T04:22:19.531Z,18.70
2018-03-25T04:24:45.281Z,18.00
2018-03-25T04:27:11.022Z,18.70
2018-03-25T04:29:36.771Z,17.93
2018-03-25T04:32:02.528Z,18.57
2018-03-25T04:34:28.282Z,17.97
2018-03-25T04:36:54.026Z,18.87
2018-03-25T04:39:19.776Z,18.67
2018-03-25T04:41:45.522Z,18.07
2018-03-25T04:44:11.258Z,18.50
2018-03-25T04:46:36.994Z,17.90
2018-03-25T04:49:02.750Z,19.27
2018-03-25T04:51:28.492Z,18.63
2018-03-25T04:53:54.242Z,17.77
2018-03-25T04:56:19.989Z,18.57
2018-03-25T04:58:45.722Z,18.47
2018-03-25T05:01:11.457Z,19.20
2018-03-25T05:03:37.178Z,18.03
2018-03-25T05:06:02.940Z,18.57
2018-03-25T05:08:28.678Z,17.93
2018-03-25T05:10:54.430Z,18.20
2018-03-25T05:13:20.150Z,19.13
2018-03-25T05:15:45.898Z,19.23
2018-03-25T05:18:11.645Z,19.13
2018-03-25T05:20:37.394Z,18.63
2018-03-25T05:23:03.129Z,19.03
2018-03-25T05:25:28.881Z,19.30
2018-03-25T05:27:54.620Z,18.60
2018-03-25T05:30:20.350Z,20.73
2018-03-25T05:32:46.090Z,18.17
2018-03-25T05:35:11.847Z,19.73
2018-03-25T05:37:37.575Z,19.93
2018-03-25T05:40:03.313Z,18.90
2018-03-25T05:42:29.060Z,19.23
2018-03-25T05:44:54.804Z,20.23
2018-03-25T05:47:20.551Z,18.90
2018-03-25T05:49:46.295Z,20.13
2018-03-25T05:52:12.038Z,21.40
2018-03-25T05:54:37.778Z,20.90
2018-03-25T05:57:03.519Z,19.13
2018-03-25T05:59:29.258Z,20.73
2018-03-25T06:01:55.005Z,19.83
2018-03-25T06:04:20.741Z,20.97
2018-03-25T06:06:46.491Z,21.23
2018-03-25T06:09:12.218Z,20.17
2018-03-25T06:11:37.983Z,19.43
2018-03-25T06:14:03.741Z,20.07
2018-03-25T06:16:29.478Z,20.63
2018-03-25T06:18:55.254Z,23.27
2018-03-25T06:21:20.998Z,23.87
2018-03-25T06:23:46.738Z,20.53
2018-03-25T06:26:12.469Z,22.93
2018-03-25T06:28:38.214Z,21.00
2018-03-25T06:31:03.962Z,21.03
2018-03-25T06:33:29.699Z,20.90
2018-03-25T06:35:55.491Z,21.17
2018-03-25T06:38:21.243Z,20.17
2018-03-25T06:40:46.994Z,22.03
2018-03-25T06:43:12.746Z,22.17
2018-03-25T06:45:38.490Z,21.10
2018-03-25T06:48:04.251Z,22.17
2018-03-25T06:50:29.998Z,21.90
2018-03-25T06:52:55.757Z,22.47
2018-03-25T06:55:21.490Z,21.53
2018-03-25T06:57:47.226Z,20.67
2018-03-25T07:00:12.971Z,21.23
2018-03-25T07:02:38.718Z,21.83
2018-03-25T07:05:04.467Z,22.30
2018-03-25T07:07:30.189Z,21.17
2018-03-25T07:09:55.931Z,22.10
2018-03-25T07:12:21.662Z,21.40
2018-03-25T07:14:47.411Z,22.00
2018-03-25T07:17:13.149Z,20.33
2018-03-25T07:19:38.890Z,22.27
2018-03-25T07:22:04.624Z,21.30
2018-03-25T07:24:30.359Z,22.50
2018-03-25T07:26:56.086Z,22.33
2018-03-25T07:29:21.818Z,22.87
2018-03-25T07:31:47.549Z,22.97
2018-03-25T07:34:13.285Z,22.93
2018-03-25T07:36:39.047Z,23.87
2018-03-25T07:39:04.792Z,22.47
2018-03-25T07:41:30.513Z,23.07
2018-03-25T07:43:56.243Z,23.30
2018-03-25T07:46:21.974Z,21.27
2018-03-25T07:48:47.727Z,23.37
2018-03-25T07:51:13.491Z,20.67
2018-03-25T07:53:39.250Z,21.50
2018-03-25T07:56:04.984Z,22.00
2018-03-25T07:58:30.726Z,22.87
2018-03-25T08:00:56.459Z,24.40
2018-03-25T08:03:22.191Z,23.07
2018-03-25T08:05:47.934Z,21.43
2018-03-25T08:08:13.658Z,22.10
2018-03-25T08:10:39.409Z,21.03
2018-03-25T08:13:05.243Z,26.57
2018-03-25T08:15:30.997Z,30.37
2018-03-25T08:17:56.747Z,29.43
2018-03-25T08:20:22.491Z,25.03
2018-03-25T08:22:48.226Z,25.83
2018-03-25T08:25:13.982Z,28.33
2018-03-25T08:27:39.730Z,26.37
2018-03-25T08:30:05.481Z,25.97
2018-03-25T08:32:31.206Z,25.03
2018-03-25T08:34:56.945Z,25.37
2018-03-25T08:37:22.690Z,24.97
2018-03-25T08:39:48.451Z,23.47
2018-03-25T08:42:14.211Z,24.07
2018-03-25T08:44:39.946Z,25.30
2018-03-25T08:47:05.685Z,23.17
2018-03-25T08:49:31.447Z,21.60
2018-03-25T08:51:57.213Z,23.27
2018-03-25T08:54:22.967Z,22.53
2018-03-25T08:56:48.729Z,21.93
2018-03-25T08:59:14.474Z,22.80
2018-03-25T09:01:40.238Z,21.87
2018-03-25T09:04:05.959Z,21.47
2018-03-25T09:06:31.705Z,21.97
2018-03-25T09:08:57.442Z,21.17
2018-03-25T09:11:23.190Z,21.57
2018-03-25T09:13:48.917Z,21.77
2018-03-25T09:16:14.660Z,21.43
2018-03-25T09:18:40.403Z,22.60
2018-03-25T09:21:06.163Z,21.27
2018-03-25T09:23:31.958Z,22.20
2018-03-25T09:25:57.705Z,23.03
2018-03-25T09:28:23.449Z,21.63
2018-03-25T09:30:49.229Z,20.47
2018-03-25T09:33:14.973Z,20.70
2018-03-25T09:35:40.726Z,21.93
2018-03-25T09:38:06.457Z,21.00
2018-03-25T09:40:32.444Z,20.90
2018-03-25T09:42:58.198Z,20.80
2018-03-25T09:45:24.828Z,21.97
2018-03-25T09:47:50.583Z,23.57
2018-03-25T09:50:16.327Z,22.73
2018-03-25T09:52:42.114Z,22.70
2018-03-25T09:55:07.807Z,22.43
2018-03-25T09:57:33.542Z,22.53
2018-03-25T09:59:59.275Z,20.90
2018-03-25T10:02:26.077Z,21.63
2018-03-25T10:04:51.891Z,21.87
2018-03-25T10:07:17.574Z,21.53
2018-03-25T10:09:43.314Z,22.20
2018-03-25T10:12:09.062Z,22.20
2018-03-25T10:14:34.796Z,22.57
2018-03-25T10:17:00.538Z,22.03
2018-03-25T10:19:26.277Z,20.67
2018-03-25T10:21:52.027Z,23.17
2018-03-25T10:24:17.826Z,22.10
2018-03-25T10:26:44.412Z,22.13
2018-03-25T10:29:10.170Z,22.00
2018-03-25T10:31:35.901Z,20.83
2018-03-25T10:34:01.683Z,21.87
2018-03-25T10:36:27.445Z,21.80
2018-03-25T10:38:53.186Z,21.60
2018-03-25T10:41:18.926Z,21.10
2018-03-25T10:43:44.749Z,21.40
2018-03-25T10:46:10.674Z,21.77
2018-03-25T10:48:36.441Z,20.80
2018-03-25T10:51:02.711Z,21.87
2018-03-25T10:53:28.477Z,21.90
2018-03-25T10:55:54.222Z,21.63
2018-03-25T10:58:19.997Z,22.00
2018-03-25T11:00:45.753Z,21.80
2018-03-25T11:03:11.509Z,22.47
2018-03-25T11:05:44.338Z,21.83
2018-03-25T11:08:10.087Z,21.77
2018-03-25T11:10:35.859Z,24.20
2018-03-25T11:13:01.766Z,23.70
2018-03-25T11:15:27.802Z,22.43
2018-03-25T11:17:53.581Z,21.63
2018-03-25T11:20:19.333Z,23.27
2018-03-25T11:22:45.800Z,25.57
2018-03-25T11:25:12.757Z,27.80
2018-03-25T11:27:39.624Z,26.90
2018-03-25T11:30:06.337Z,26.63
2018-03-25T11:32:32.084Z,28.27
2018-03-25T11:34:57.840Z,26.70
2018-03-25T11:37:23.575Z,25.40
2018-03-25T11:39:49.333Z,27.40
2018-03-25T11:42:15.079Z,27.87
2018-03-25T11:44:40.843Z,26.23
2018-03-25T11:47:06.590Z,24.93
2018-03-25T11:49:32.361Z,21.10
2018-03-25T11:51:58.106Z,24.93
2018-03-25T11:54:23.868Z,24.10
2018-03-25T11:56:49.607Z,22.83
2018-03-25T11:59:15.366Z,22.27
2018-03-25T12:01:41.122Z,24.13
2018-03-25T12:04:06.880Z,23.03
2018-03-25T12:06:32.629Z,24.80
2018-03-25T12:08:58.394Z,24.27
2018-03-25T12:11:24.134Z,23.03
2018-03-25T12:13:49.903Z,22.90
2018-03-25T12:16:15.649Z,22.47
2018-03-25T12:18:41.398Z,23.47
2018-03-25T12:21:07.138Z,23.00
2018-03-25T12:23:32.878Z,21.47
2018-03-25T12:25:58.628Z,21.57
2018-03-25T12:28:24.361Z,20.33
2018-03-25T12:30:50.115Z,20.80
2018-03-25T12:33:15.853Z,20.20
2018-03-25T12:35:41.604Z,22.93
2018-03-25T12:38:07.344Z,20.83
2018-03-25T12:40:33.102Z,20.10
2018-03-25T12:42:58.840Z,21.17
2018-03-25T12:45:24.607Z,21.23
2018-03-25T12:47:50.363Z,20.83
2018-03-25T12:50:16.134Z,21.00
2018-03-25T12:52:41.877Z,20.70
2018-03-25T12:55:07.638Z,22.10
2018-03-25T12:57:33.383Z,21.77
2018-03-25T12:59:59.126Z,22.13
2018-03-25T13:02:25.326Z,22.87
2018-03-25T13:04:51.086Z,22.57
2018-03-25T13:07:16.828Z,22.47
2018-03-25T13:09:42.579Z,21.30
2018-03-25T13:12:08.315Z,20.53
2018-03-25T13:14:34.059Z,24.87
2018-03-25T13:19:32.450Z,20.50
2018-03-25T13:21:58.272Z,21.67
2018-03-25T13:24:25.076Z,21.93
2018-03-25T13:26:50.896Z,22.20
2018-03-25T13:29:16.642Z,20.73
2018-03-25T13:31:42.402Z,20.77
2018-03-25T13:34:08.145Z,20.30
2018-03-25T13:36:33.898Z,20.90
2018-03-25T13:38:59.655Z,20.87
2018-03-25T13:41:25.400Z,20.63
2018-03-25T13:43:51.308Z,19.07
2018-03-25T13:46:17.058Z,19.57
2018-03-25T13:48:42.806Z,19.93
2018-03-25T13:51:08.544Z,18.83
2018-03-25T13:53:34.269Z,19.73
2018-03-25T13:56:00.012Z,18.77
2018-03-25T13:58:25.779Z,20.17
2018-03-25T14:00:51.609Z,20.03
2018-03-25T14:03:17.316Z,21.57
2018-03-25T14:05:43.079Z,20.50
2018-03-25T14:08:08.898Z,20.23
2018-03-25T14:10:34.632Z,21.30
2018-03-25T14:13:00.427Z,20.20
2018-03-25T14:15:26.286Z,21.27
2018-03-25T14:17:52.026Z,21.43
2018-03-25T14:20:17.748Z,19.90
2018-03-25T14:22:43.479Z,21.43
2018-03-25T14:25:09.213Z,19.60
2018-03-25T14:27:34.954Z,21.03
2018-03-25T14:30:00.734Z,19.93
2018-03-25T14:32:26.420Z,21.23
2018-03-25T14:34:52.158Z,21.10
2018-03-25T14:37:17.961Z,21.13
2018-03-25T14:39:43.694Z,20.33
2018-03-25T14:42:09.425Z,21.30
2018-03-25T14:44:35.154Z,20.53
2018-03-25T14:47:00.924Z,21.93
2018-03-25T14:49:26.679Z,21.70
2018-03-25T14:51:52.418Z,22.43
2018-03-25T14:54:18.146Z,20.97
2018-03-25T14:56:43.890Z,22.57
2018-03-25T14:59:09.622Z,20.80
2018-03-25T15:01:35.386Z,21.97
2018-03-25T15:04:01.137Z,23.23
2018-03-25T15:06:26.866Z,22.97
2018-03-25T15:08:52.614Z,22.37
2018-03-25T15:11:18.360Z,22.77
2018-03-25T15:13:44.156Z,22.20
2018-03-25T15:16:09.893Z,21.97
2018-03-25T15:18:35.634Z,20.50
2018-03-25T15:21:01.380Z,22.67
2018-03-25T15:23:27.123Z,22.47
2018-03-25T15:25:52.931Z,21.63
2018-03-25T15:28:18.637Z,21.50
2018-03-25T15:30:44.365Z,21.60
2018-03-25T15:33:10.154Z,22.03
2018-03-25T15:35:35.898Z,22.40
2018-03-25T15:38:01.655Z,22.07
2018-03-25T15:40:27.390Z,23.40
2018-03-25T15:42:53.133Z,22.13
2018-03-25T15:45:18.868Z,24.57
2018-03-25T15:47:44.610Z,24.23
2018-03-25T15:50:10.370Z,26.43
2018-03-25T15:52:36.109Z,27.63
2018-03-25T15:55:01.860Z,25.77
2018-03-25T15:57:27.596Z,26.07
2018-03-25T15:59:53.317Z,26.77
2018-03-25T16:02:19.033Z,26.23
2018-03-25T16:04:44.774Z,26.00
2018-03-25T16:07:10.508Z,26.67
2018-03-25T16:09:36.240Z,26.07
2018-03-25T16:12:01.989Z,26.30
2018-03-25T16:14:27.722Z,24.93
2018-03-25T16:16:53.466Z,24.53
2018-03-25T16:19:19.201Z,25.37
2018-03-25T16:21:44.942Z,26.80
2018-03-25T16:24:10.687Z,26.07
2018-03-25T16:26:36.450Z,25.90
2018-03-25T16:29:02.214Z,23.90
2018-03-25T16:31:27.946Z,26.47
2018-03-25T16:33:53.699Z,25.27
2018-03-25T16:36:19.449Z,25.67
2018-03-25T16:38:45.197Z,24.37
2018-03-25T16:41:10.946Z,26.07
2018-03-25T16:43:36.674Z,24.63
2018-03-25T16:46:02.412Z,25.57
2018-03-25T16:48:28.147Z,26.23
2018-03-25T16:50:53.896Z,28.77
2018-03-25T16:53:19.634Z,25.63
2018-03-25T16:55:45.375Z,26.70
2018-03-25T16:58:11.106Z,28.13
2018-03-25T17:00:36.833Z,27.90
2018-03-25T17:03:02.586Z,28.60
2018-03-25T17:05:28.330Z,29.27
2018-03-25T17:07:54.052Z,29.23
2018-03-25T17:10:19.809Z,28.00
2018-03-25T17:12:45.555Z,28.73
2018-03-25T17:15:11.310Z,27.57
2018-03-25T17:17:37.035Z,28.77
2018-03-25T17:20:02.768Z,26.67
2018-03-25T17:22:28.502Z,28.27
2018-03-25T17:24:54.266Z,27.83
2018-03-25T17:27:20.007Z,29.43
2018-03-25T17:29:45.732Z,31.00
2018-03-25T17:32:11.474Z,32.67
2018-03-25T17:34:37.205Z,28.47
2018-03-25T17:37:02.943Z,31.80
2018-03-25T17:39:28.665Z,31.07
2018-03-25T17:41:54.852Z,31.60
2018-03-25T17:44:20.589Z,32.08
2018-03-25T17:46:46.322Z,33.30
2018-03-25T17:49:12.077Z,32.13
2018-03-25T17:51:37.813Z,30.70
2018-03-25T17:54:03.545Z,32.60
2018-03-25T17:56:29.290Z,34.97
2018-03-25T17:58:55.007Z,36.70
2018-03-25T18:01:20.766Z,35.67
2018-03-25T18:03:46.497Z,35.77
2018-03-25T18:06:12.233Z,36.20
2018-03-25T18:08:37.978Z,36.23
2018-03-25T18:11:03.729Z,38.13
2018-03-25T18:13:29.487Z,41.43
2018-03-25T18:15:55.247Z,41.57
2018-03-25T18:18:21.009Z,39.17
2018-03-25T18:20:56.293Z,40.07
2018-03-25T18:23:12.477Z,42.27
2018-03-25T18:25:38.211Z,43.33
2018-03-25T18:28:03.954Z,45.40
2018-03-25T18:30:29.705Z,45.00
2018-03-25T18:32:55.464Z,46.87
2018-03-25T18:35:21.206Z,47.87
2018-03-25T18:37:46.974Z,46.43
2018-03-25T18:40:12.719Z,46.73
2018-03-25T18:42:38.460Z,48.50
2018-03-25T18:45:04.200Z,43.13
2018-03-25T18:47:29.946Z,49.73
2018-03-25T18:49:55.690Z,48.30
2018-03-25T18:52:21.450Z,47.33
2018-03-25T18:54:47.176Z,48.53
2018-03-25T18:57:12.902Z,45.73
2018-03-25T18:59:38.662Z,49.53
2018-03-25T19:02:04.404Z,49.33
2018-03-25T19:04:30.146Z,57.37
2018-03-25T19:06:55.878Z,53.40
2018-03-25T19:09:21.657Z,57.50
2018-03-25T19:11:47.381Z,59.63
2018-03-25T19:14:13.118Z,57.70
2018-03-25T19:16:38.853Z,58.10
2018-03-25T19:19:04.604Z,59.10
2018-03-25T19:21:30.337Z,59.17
2018-03-25T19:23:56.082Z,58.13
2018-03-25T19:26:21.810Z,58.83
2018-03-25T19:28:47.597Z,58.10
2018-03-25T19:31:13.338Z,59.60
2018-03-25T19:33:39.082Z,57.90
2018-03-25T19:36:04.803Z,60.20
2018-03-25T19:38:30.528Z,64.07
2018-03-25T19:40:56.270Z,61.53
2018-03-25T19:43:21.998Z,64.13
2018-03-25T19:45:47.728Z,64.63
2018-03-25T19:48:13.476Z,62.97
2018-03-25T19:50:39.222Z,62.37
2018-03-25T19:53:04.965Z,59.13
2018-03-25T19:55:30.701Z,57.00
2018-03-25T19:57:56.439Z,56.03
2018-03-25T20:00:22.200Z,61.20
2018-03-25T20:02:47.958Z,57.77
2018-03-25T20:05:13.698Z,56.07
2018-03-25T20:07:39.426Z,60.67
2018-03-25T20:10:05.184Z,63.13
2018-03-25T20:12:30.924Z,57.83
2018-03-25T20:14:56.668Z,57.00
2018-03-25T20:17:22.406Z,56.20
2018-03-25T20:19:48.157Z,53.03
2018-03-25T20:22:13.948Z,55.60
2018-03-25T20:24:39.655Z,56.40
2018-03-25T20:27:05.429Z,56.43
2018-03-25T20:29:31.167Z,56.40
2018-03-25T20:31:56.906Z,53.17
2018-03-25T20:34:22.627Z,54.13
2018-03-25T20:36:48.398Z,52.40
2018-03-25T20:39:14.151Z,58.43
2018-03-25T20:41:39.899Z,55.10
2018-03-25T20:44:05.641Z,52.67
2018-03-25T20:46:31.379Z,52.77
2018-03-25T20:48:57.146Z,51.30
2018-03-25T20:51:22.890Z,57.60
2018-03-25T20:53:48.634Z,54.10
2018-03-25T20:56:14.402Z,57.50
2018-03-25T20:58:40.136Z,57.60
2018-03-25T21:01:05.875Z,56.60
2018-03-25T21:03:31.605Z,60.57
2018-03-25T21:05:57.341Z,57.03
2018-03-25T21:08:23.074Z,57.17
2018-03-25T21:10:48.819Z,60.60
2018-03-25T21:13:14.647Z,63.37
2018-03-25T21:15:40.378Z,59.13
2018-03-25T21:18:06.126Z,58.53
2018-03-25T21:20:31.861Z,60.53
2018-03-25T21:22:57.597Z,64.17
2018-03-25T21:25:23.326Z,64.93
2018-03-25T21:27:49.074Z,63.30
2018-03-25T21:30:14.821Z,61.97
2018-03-25T21:32:40.557Z,68.67
2018-03-25T21:35:06.290Z,59.13
2018-03-25T21:37:32.027Z,64.33
2018-03-25T21:39:57.759Z,65.53
2018-03-25T21:42:23.498Z,60.83
2018-03-25T21:44:49.219Z,61.57
2018-03-25T21:47:14.984Z,66.13
2018-03-25T21:49:40.722Z,62.40
2018-03-25T21:52:06.463Z,70.33
2018-03-25T21:54:32.195Z,67.87
2018-03-25T21:56:57.924Z,68.30
2018-03-25T21:59:23.674Z,66.43
2018-03-25T22:01:49.413Z,63.23
2018-03-25T22:04:15.178Z,64.83
2018-03-25T22:06:40.917Z,68.37
2018-03-25T22:09:06.662Z,67.00
2018-03-25T22:11:32.380Z,67.37
2018-03-25T22:13:58.233Z,70.13
2018-03-25T22:16:23.957Z,65.50
2018-03-25T22:18:58.870Z,65.00
2018-03-25T22:21:24.608Z,66.18
2018-03-25T22:23:50.341Z,69.30
2018-03-25T22:26:16.066Z,69.83
2018-03-25T22:28:41.809Z,75.20
2018-03-25T22:31:07.550Z,71.33
2018-03-25T22:33:33.300Z,74.63
2018-03-25T22:35:59.030Z,74.90
2018-03-25T22:38:24.765Z,81.80
2018-03-25T22:40:50.498Z,75.97
2018-03-25T22:43:16.231Z,75.30
2018-03-25T22:45:41.973Z,81.07
2018-03-25T22:48:07.714Z,78.83
2018-03-25T22:50:33.450Z,90.87
2018-03-25T22:52:59.174Z,92.93
2018-03-25T22:55:24.905Z,95.47
2018-03-25T22:57:50.643Z,99.83
2018-03-25T23:00:16.378Z,102.60
2018-03-25T23:02:42.123Z,105.87
2018-03-25T23:05:07.867Z,106.43
2018-03-25T23:07:33.607Z,113.77
2018-03-25T23:09:59.374Z,119.40
2018-03-25T23:12:25.112Z,114.77
2018-03-25T23:14:50.865Z,120.40
2018-03-25T23:17:16.600Z,117.70
2018-03-25T23:19:42.334Z,117.47
2018-03-25T23:22:08.078Z,109.10
2018-03-25T23:24:33.818Z,105.50
2018-03-25T23:26:59.546Z,107.13
2018-03-25T23:29:25.276Z,110.07
2018-03-25T23:31:51.034Z,96.97
2018-03-25T23:34:16.754Z,112.53
2018-03-25T23:36:42.501Z,109.60
2018-03-25T23:39:08.231Z,95.13
2018-03-25T23:41:33.970Z,109.40
2018-03-25T23:43:59.878Z,104.17
2018-03-25T23:46:25.632Z,112.10
2018-03-25T23:48:51.372Z,101.03
2018-03-25T23:51:17.125Z,106.57
2018-03-25T23:53:42.870Z,80.20
2018-03-25T23:56:08.622Z,92.63
2018-03-25T23:58:34.582Z,107.03
